Time;durP1;ratioP1;P1;durP2;ratioP2;P2;SDS_P1;SDS_P2;PMS_P1;PMS_P2;Temp;Humidity;BMP_temperature;BMP_pressure;BME280_temperature;BME280_humidity;BME280_pressure;Samples;Min_cycle;Max_cycle;Signal;HPM_P1;HPM_P2
2022/03/03 00:00:50;;;;;;;17.95;9.25;;;2.10;99.90;;;2.23;nan;101070.34;5047317;28;20247;-66
2022/03/03 00:03:17;;;;;;;19.10;9.32;;;2.10;99.90;;;2.17;nan;101073.06;5050977;28;20201;-65
2022/03/03 00:05:44;;;;;;;14.00;7.95;;;2.00;99.90;;;2.20;nan;101083.28;5050188;28;20197;-68
2022/03/03 00:08:11;;;;;;;19.85;9.50;;;2.10;99.90;;;2.17;nan;101080.81;5045819;28;20705;-69
2022/03/03 00:10:38;;;;;;;17.67;9.48;;;2.10;99.90;;;2.13;nan;101078.41;5049743;28;20209;-67
2022/03/03 00:13:06;;;;;;;16.95;9.40;;;2.00;99.90;;;2.10;nan;101084.47;5050124;28;20262;-67
2022/03/03 00:15:34;;;;;;;23.27;11.02;;;1.90;99.90;;;2.11;nan;101072.41;5050560;28;20202;-69
2022/03/03 00:18:02;;;;;;;16.38;9.32;;;2.00;99.90;;;2.07;nan;101073.41;5048426;28;20287;-68
2022/03/03 00:20:29;;;;;;;13.50;8.43;;;2.00;99.90;;;2.11;nan;101077.56;5049685;28;20232;-66
2022/03/03 00:22:57;;;;;;;16.83;8.98;;;2.00;99.90;;;2.05;nan;101078.59;5048940;28;20197;-68
2022/03/03 00:25:24;;;;;;;17.30;8.30;;;1.90;99.90;;;2.07;nan;101071.69;5050896;28;20259;-68
2022/03/03 00:27:51;;;;;;;17.83;8.40;;;1.90;99.90;;;2.02;nan;101072.72;5050784;28;20234;-67
2022/03/03 00:30:18;;;;;;;18.42;8.93;;;1.90;99.90;;;2.13;nan;101075.81;5050617;28;20286;-68
2022/03/03 00:32:45;;;;;;;18.83;10.00;;;2.00;99.90;;;2.04;nan;101066.63;5051481;28;20209;-66
2022/03/03 00:35:12;;;;;;;16.98;10.10;;;1.90;99.90;;;1.86;nan;101068.91;5048585;28;20213;-68
2022/03/03 00:37:40;;;;;;;18.80;8.35;;;1.80;99.90;;;1.90;nan;101067.91;5045170;28;20232;-70
2022/03/03 00:40:09;;;;;;;15.73;7.63;;;1.80;99.90;;;1.88;nan;101075.69;5050771;28;20218;-69
2022/03/03 00:42:36;;;;;;;12.85;7.25;;;1.70;99.90;;;1.84;nan;101068.94;5049186;28;20197;-67
2022/03/03 00:45:04;;;;;;;16.38;8.35;;;1.70;99.90;;;1.79;nan;101080.28;5066565;28;20605;-68
2022/03/03 00:47:32;;;;;;;19.67;9.30;;;1.70;99.90;;;1.77;nan;101071.75;5049693;28;20220;-67
2022/03/03 00:49:58;;;;;;;20.58;9.73;;;1.60;99.90;;;1.62;nan;101082.47;5048179;28;20205;-67
2022/03/03 00:52:26;;;;;;;18.75;9.63;;;1.60;99.90;;;1.53;nan;101073.28;5047652;28;20205;-67
2022/03/03 00:54:53;;;;;;;18.45;9.60;;;1.50;99.90;;;1.58;nan;101074.00;5050282;28;20609;-67
2022/03/03 00:57:20;;;;;;;17.98;9.55;;;1.40;99.90;;;1.63;nan;101071.28;5049584;28;20239;-69
2022/03/03 00:59:47;;;;;;;15.18;8.65;;;1.50;99.90;;;1.68;nan;101065.16;5050962;28;20590;-68
2022/03/03 01:02:14;;;;;;;16.27;8.95;;;1.60;99.90;;;1.68;nan;101066.88;5049529;28;20209;-67
2022/03/03 01:04:41;;;;;;;14.52;9.05;;;1.60;99.90;;;1.66;nan;101071.22;5048994;28;20251;-67
2022/03/03 01:07:08;;;;;;;19.90;10.70;;;1.50;99.90;;;1.67;nan;101075.47;5048983;28;20229;-69
2022/03/03 01:09:35;;;;;;;16.50;8.88;;;1.50;99.90;;;1.67;nan;101086.59;5049880;28;20197;-67
2022/03/03 01:12:02;;;;;;;28.35;10.65;;;1.50;99.90;;;1.73;nan;101086.41;5048343;28;20209;-67
2022/03/03 01:14:29;;;;;;;21.55;10.20;;;1.60;99.90;;;1.76;nan;101088.06;5047638;28;20209;-67
2022/03/03 01:16:56;;;;;;;18.23;8.95;;;1.60;99.90;;;1.81;nan;101087.03;5048739;28;20229;-68
2022/03/03 01:19:23;;;;;;;22.67;9.57;;;1.70;99.90;;;1.79;nan;101067.41;5048077;28;20217;-66
2022/03/03 01:21:50;;;;;;;20.98;10.68;;;1.70;99.90;;;1.84;nan;101074.09;5049268;28;20197;-69
2022/03/03 01:24:17;;;;;;;21.55;11.68;;;1.70;99.90;;;1.80;nan;101076.78;5049222;28;20200;-68
2022/03/03 01:26:44;;;;;;;20.38;11.00;;;1.70;99.90;;;1.77;nan;101082.06;5067054;22;20664;-66
2022/03/03 01:29:11;;;;;;;21.48;11.05;;;1.70;99.90;;;1.75;nan;101074.34;5029312;28;20674;-65
2022/03/03 01:31:39;;;;;;;19.35;10.50;;;1.70;99.90;;;1.74;nan;101069.25;5029293;28;20221;-66
2022/03/03 01:34:08;;;;;;;16.13;7.75;;;1.70;99.90;;;1.69;nan;101064.25;5027995;28;20209;-65
2022/03/03 01:36:35;;;;;;;21.45;9.73;;;1.60;99.90;;;1.69;nan;101061.66;5020547;28;20205;-66
2022/03/03 01:39:05;;;;;;;14.95;8.55;;;1.60;99.90;;;1.72;nan;101065.88;5004826;28;20210;-66
2022/03/03 01:41:33;;;;;;;21.98;10.75;;;1.60;99.90;;;1.67;nan;101060.88;5013028;28;20202;-66
2022/03/03 01:44:00;;;;;;;20.20;10.70;;;1.60;99.90;;;1.67;nan;101060.88;5013485;28;20240;-66
2022/03/03 01:46:27;;;;;;;18.92;9.13;;;1.60;99.90;;;1.70;nan;101055.66;5029329;28;20763;-66
2022/03/03 01:48:54;;;;;;;19.02;10.55;;;1.60;99.90;;;1.66;nan;101054.06;5010646;28;20275;-66
2022/03/03 01:51:22;;;;;;;16.75;8.38;;;1.60;99.90;;;1.69;nan;101043.66;5028272;28;20206;-67
2022/03/03 01:53:49;;;;;;;19.48;10.70;;;1.60;99.90;;;1.70;nan;101039.38;4992183;28;20230;-67
2022/03/03 01:56:18;;;;;;;19.38;10.93;;;1.60;99.90;;;1.72;nan;101037.59;4992005;28;20217;-67
2022/03/03 01:58:45;;;;;;;20.85;11.57;;;1.60;99.90;;;1.75;nan;101033.19;4989667;28;20234;-67
2022/03/03 02:01:15;;;;;;;20.10;12.43;;;1.70;99.90;;;1.64;nan;101031.84;5009967;28;20241;-67
2022/03/03 02:03:42;;;;;;;22.00;11.18;;;1.60;99.90;;;1.58;nan;101029.44;5023803;28;20210;-67
2022/03/03 02:06:09;;;;;;;15.55;8.85;;;1.50;99.90;;;1.61;nan;101027.63;5005966;28;20588;-67
2022/03/03 02:08:36;;;;;;;18.02;8.02;;;1.50;99.90;;;1.60;nan;101025.91;4995069;28;20214;-67
2022/03/03 02:11:03;;;;;;;7.35;4.63;;;1.50;99.90;;;1.65;nan;101018.06;4997015;28;20209;-67
2022/03/03 02:13:30;;;;;;;7.78;4.85;;;1.50;99.90;;;1.58;nan;101019.16;5014843;28;20232;-67
2022/03/03 02:15:57;;;;;;;12.25;5.30;;;1.50;99.90;;;1.46;nan;101018.63;5014063;28;20210;-67
2022/03/03 02:18:24;;;;;;;12.90;7.15;;;1.30;99.90;;;1.37;nan;101013.72;4999701;28;20606;-67
2022/03/03 02:20:51;;;;;;;12.82;6.97;;;1.30;99.90;;;1.39;nan;79073.25;5014560;28;20233;-67
2022/03/03 02:23:18;;;;;;;12.52;6.88;;;1.30;99.90;;;1.32;nan;101012.19;4998172;28;20229;-67
2022/03/03 02:25:46;;;;;;;7.53;4.22;;;1.20;99.90;;;1.29;nan;101012.25;5014906;28;20572;-67
2022/03/03 02:28:13;;;;;;;8.63;5.65;;;1.20;99.90;;;1.27;nan;101004.59;5013821;28;20241;-67
2022/03/03 02:30:40;;;;;;;11.35;5.78;;;1.20;99.90;;;1.16;nan;101011.75;4999247;28;20671;-67
2022/03/03 02:33:07;;;;;;;7.13;4.50;;;1.10;99.90;;;1.10;nan;101017.06;5015233;28;20217;-66
2022/03/03 02:35:35;;;;;;;7.03;4.05;;;1.00;99.90;;;1.04;nan;101011.25;5033812;28;20198;-67
2022/03/03 02:38:02;;;;;;;8.98;4.95;;;1.00;99.90;;;1.05;nan;101006.06;5032710;28;20729;-67
2022/03/03 02:40:29;;;;;;;7.72;5.10;;;1.00;99.90;;;0.98;nan;101008.84;5032219;28;20232;-67
2022/03/03 02:42:56;;;;;;;12.57;6.93;;;0.90;99.90;;;0.94;nan;101014.97;4979555;28;20207;-67
2022/03/03 02:45:23;;;;;;;14.85;8.00;;;0.90;99.90;;;0.95;nan;101014.91;5010678;28;20567;-67
2022/03/03 02:47:51;;;;;;;14.02;7.70;;;0.90;99.90;;;0.99;nan;101013.09;5032030;28;20217;-67
2022/03/03 02:50:24;;;;;;;14.73;6.97;;;0.90;99.90;;;0.99;nan;101013.09;5016325;28;20210;-67
2022/03/03 02:52:52;;;;;;;18.15;7.85;;;0.90;99.90;;;1.02;nan;101013.88;5013150;28;20209;-67
2022/03/03 02:55:20;;;;;;;15.27;8.68;;;0.90;99.90;;;0.99;nan;101006.22;5027140;28;20202;-67
2022/03/03 02:57:53;;;;;;;16.77;9.43;;;0.90;99.90;;;1.01;nan;101009.59;5030901;28;20230;-67
2022/03/03 03:00:26;;;;;;;15.43;7.97;;;0.90;99.90;;;1.10;nan;101001.66;4996447;28;20258;-67
2022/03/03 03:02:54;;;;;;;14.82;7.53;;;1.00;99.90;;;1.17;nan;100997.19;5012713;28;20206;-67
2022/03/03 03:05:22;;;;;;;14.88;7.18;;;1.10;99.90;;;1.16;nan;101001.47;5014162;28;20688;-67
2022/03/03 03:07:49;;;;;;;13.15;8.27;;;1.00;99.90;;;1.17;nan;100992.88;5013314;28;20762;-67
2022/03/03 03:10:16;;;;;;;12.23;7.05;;;1.10;99.90;;;1.09;nan;100989.69;5023367;28;20193;-67
2022/03/03 03:12:43;;;;;;;11.50;6.60;;;1.00;99.90;;;1.12;nan;100988.75;5034350;28;20217;-67
2022/03/03 03:15:11;;;;;;;9.50;6.00;;;1.00;99.90;;;1.15;nan;100988.69;5034494;28;20213;-67
2022/03/03 03:17:37;;;;;;;9.77;4.55;;;1.00;99.90;;;1.09;nan;100987.09;5031375;28;20229;-67
2022/03/03 03:20:09;;;;;;;8.00;4.60;;;1.00;99.90;;;0.96;nan;100990.88;4998144;28;20225;-67
2022/03/03 03:22:37;;;;;;;7.60;4.00;;;0.90;99.90;;;0.78;nan;100983.69;5021798;28;20205;-67
2022/03/03 03:25:08;;;;;;;6.70;4.72;;;0.70;99.90;;;0.75;nan;100988.88;5001930;28;20199;-67
2022/03/03 03:27:42;;;;;;;11.68;6.30;;;0.60;99.90;;;0.68;nan;100987.38;5026175;28;20233;-67
2022/03/03 03:30:11;;;;;;;10.25;6.43;;;0.50;99.90;;;0.57;nan;100984.25;5014826;28;20662;-67
2022/03/03 03:32:38;;;;;;;12.30;6.43;;;0.50;99.90;;;0.55;nan;100973.16;5031671;28;20201;-67
2022/03/03 03:35:06;;;;;;;15.65;7.15;;;0.50;99.90;;;0.56;nan;100982.53;5013503;28;20205;-67
2022/03/03 03:37:33;;;;;;;13.82;7.35;;;0.50;99.90;;;0.61;nan;100978.16;5014178;28;20740;-67
2022/03/03 03:40:00;;;;;;;16.92;9.02;;;0.50;99.90;;;0.67;nan;100975.41;5012971;28;20612;-67
2022/03/03 03:42:27;;;;;;;18.55;10.30;;;0.60;99.90;;;0.73;nan;100980.38;5028177;28;20205;-67
2022/03/03 03:44:54;;;;;;;15.40;8.32;;;0.60;99.90;;;0.68;nan;100971.97;5013886;28;20198;-67
2022/03/03 03:47:21;;;;;;;15.88;8.30;;;0.60;99.90;;;0.69;nan;100971.06;5014375;28;20222;-67
2022/03/03 03:49:48;;;;;;;14.38;7.38;;;0.60;99.90;;;0.73;nan;100968.41;5032623;28;20268;-66
2022/03/03 03:52:18;;;;;;;15.23;7.50;;;0.70;99.90;;;0.75;nan;100963.22;5014711;28;20682;-67
2022/03/03 03:54:45;;;;;;;7.25;4.25;;;0.70;99.90;;;0.82;nan;100962.16;5030809;28;20194;-67
2022/03/03 03:57:12;;;;;;;5.72;3.40;;;0.70;99.90;;;0.77;nan;100964.00;5013813;28;20229;-67
2022/03/03 03:59:39;;;;;;;7.53;3.92;;;0.70;99.90;;;0.71;nan;100961.59;5013465;28;20256;-67
2022/03/03 04:02:06;;;;;;;11.48;5.43;;;0.70;99.90;;;0.62;nan;100962.69;5032539;28;20206;-67
2022/03/03 04:04:33;;;;;;;8.48;4.10;;;0.50;99.90;;;0.61;nan;100953.31;5012926;28;20198;-65
2022/03/03 04:07:00;;;;;;;9.55;5.60;;;0.50;99.90;;;0.57;nan;100956.00;5030816;28;20230;-66
2022/03/03 04:09:27;;;;;;;10.18;6.05;;;0.50;99.90;;;0.57;nan;100961.13;5018493;28;20210;-66
2022/03/03 04:11:54;;;;;;;11.77;6.40;;;0.50;99.90;;;0.52;nan;100962.97;5031911;28;20697;-67
2022/03/03 04:14:20;;;;;;;14.63;7.05;;;0.50;99.90;;;0.48;nan;100967.34;5013043;28;20613;-67
2022/03/03 04:16:47;;;;;;;12.68;6.40;;;0.50;99.90;;;0.53;nan;100964.66;5030207;28;20229;-67
2022/03/03 04:19:14;;;;;;;13.10;5.85;;;0.50;99.90;;;0.55;nan;100956.06;5013529;28;20202;-67
2022/03/03 04:21:42;;;;;;;7.88;4.45;;;0.50;99.90;;;0.52;nan;100957.84;5012576;28;20280;-67
2022/03/03 04:24:10;;;;;;;12.18;4.22;;;0.40;99.90;;;0.51;nan;100962.13;5012859;28;20722;-67
2022/03/03 04:26:37;;;;;;;11.73;6.30;;;0.40;99.90;;;0.51;nan;100958.72;5011884;28;20206;-67
2022/03/03 04:29:04;;;;;;;6.50;4.75;;;0.40;99.90;;;0.44;nan;100955.47;5032328;28;20209;-67
2022/03/03 04:31:31;;;;;;;12.52;6.97;;;0.40;99.90;;;0.46;nan;100963.13;5012773;28;20206;-67
2022/03/03 04:33:58;;;;;;;12.02;6.53;;;0.40;99.90;;;0.39;nan;100953.88;5012485;28;20210;-67
2022/03/03 04:36:25;;;;;;;16.95;6.80;;;0.40;99.90;;;0.42;nan;100959.81;5013210;28;20213;-67
2022/03/03 04:38:52;;;;;;;16.27;8.02;;;0.30;99.90;;;0.36;nan;100959.94;5029241;28;20741;-67
2022/03/03 04:41:20;;;;;;;11.30;6.55;;;0.30;99.90;;;0.43;nan;100955.50;5029759;28;20222;-67
2022/03/03 04:43:48;;;;;;;17.40;8.88;;;0.30;99.90;;;0.38;nan;100952.22;4994992;28;20572;-67
2022/03/03 04:46:16;;;;;;;15.27;8.23;;;0.30;99.90;;;0.44;nan;100952.06;5030652;28;20213;-64
2022/03/03 04:48:43;;;;;;;16.92;9.10;;;0.40;99.90;;;0.50;nan;100951.91;5029428;28;20655;-67
2022/03/03 04:51:09;;;;;;;16.00;8.98;;;0.40;99.90;;;0.50;nan;100942.47;5012023;28;20209;-67
2022/03/03 04:53:37;;;;;;;19.58;9.63;;;0.50;99.90;;;0.41;nan;100952.13;5029486;28;20217;-65
2022/03/03 04:56:04;;;;;;;13.25;7.78;;;0.40;99.90;;;0.36;nan;100948.84;5029419;28;20206;-67
2022/03/03 04:58:31;;;;;;;13.10;6.28;;;0.30;99.90;;;0.43;nan;100951.22;5009007;28;20226;-67
2022/03/03 05:00:58;;;;;;;17.52;8.73;;;0.30;99.90;;;0.35;nan;100949.72;5008557;28;20230;-65
2022/03/03 05:03:25;;;;;;;14.55;8.70;;;0.30;99.90;;;0.41;nan;100957.25;5008595;28;20601;-65
2022/03/03 05:05:52;;;;;;;17.77;9.05;;;0.30;99.90;;;0.27;nan;100965.31;5019660;28;20276;-64
2022/03/03 05:08:19;;;;;;;18.17;8.65;;;0.20;99.90;;;0.20;nan;100962.94;4996020;28;20230;-65
2022/03/03 05:10:46;;;;;;;16.20;8.80;;;0.10;99.90;;;0.27;nan;100961.91;5046239;28;20197;-65
2022/03/03 05:13:14;;;;;;;15.77;8.50;;;0.20;99.90;;;0.29;nan;100957.56;5016498;28;20209;-65
2022/03/03 05:15:41;;;;;;;16.23;8.20;;;0.20;99.90;;;0.33;nan;100956.63;5016708;28;20681;-67
2022/03/03 05:18:08;;;;;;;15.52;9.05;;;0.30;99.90;;;0.27;nan;100961.91;5030174;28;20291;-65
2022/03/03 05:20:35;;;;;;;19.58;9.60;;;0.20;99.90;;;0.26;nan;100955.06;5029509;28;20272;-65
2022/03/03 05:23:02;;;;;;;17.85;8.00;;;0.20;99.90;;;0.29;nan;100957.56;5012974;28;20244;-65
2022/03/03 05:25:29;;;;;;;12.45;6.80;;;0.20;99.90;;;0.33;nan;100959.19;5029154;28;20202;-67
2022/03/03 05:27:59;;;;;;;14.90;7.47;;;0.20;99.90;;;0.31;nan;100955.81;5029532;28;20230;-65
2022/03/03 05:30:27;;;;;;;15.02;7.60;;;0.20;99.90;;;0.32;nan;100957.50;5012318;28;20206;-65
2022/03/03 05:32:54;;;;;;;14.20;6.57;;;0.20;99.90;;;0.29;nan;100955.84;5029264;28;20236;-65
2022/03/03 05:35:21;;;;;;;10.65;5.20;;;0.20;99.90;;;0.29;nan;100953.28;5004639;28;20214;-65
2022/03/03 05:37:49;;;;;;;5.85;3.95;;;0.30;99.90;;;0.33;nan;100941.22;5019600;28;20233;-66
2022/03/03 05:40:16;;;;;;;11.98;5.88;;;0.20;99.90;;;0.31;nan;100930.16;5015727;28;20205;-65
2022/03/03 05:42:44;;;;;;;12.70;6.60;;;0.20;99.90;;;0.23;nan;100914.97;5012061;28;20202;-66
2022/03/03 05:45:12;;;;;;;11.98;6.07;;;0.20;99.90;;;0.15;nan;100918.59;5014008;28;20211;-66
2022/03/03 05:47:40;;;;;;;10.55;5.80;;;0.10;99.90;;;0.20;nan;100927.00;5007513;28;20233;-66
2022/03/03 05:50:08;;;;;;;11.77;6.07;;;0.10;99.90;;;0.15;nan;100916.03;4995896;28;20651;-66
2022/03/03 05:52:35;;;;;;;10.30;5.65;;;0.10;99.90;;;0.19;nan;100904.81;5016779;28;20677;-65
2022/03/03 05:55:03;;;;;;;10.98;5.47;;;0.10;99.90;;;0.23;nan;100901.28;5033030;28;20659;-66
2022/03/03 05:57:38;;;;;;;4.45;3.53;;;0.10;99.90;;;0.26;nan;100888.34;4982863;28;20230;-66
2022/03/03 06:00:13;;;;;;;7.72;4.28;;;0.10;99.90;;;0.28;nan;100881.47;5034400;28;20209;-66
2022/03/03 06:02:49;;;;;;;11.15;3.22;;;0.20;99.90;;;0.25;nan;100876.41;5007183;28;20203;-66
2022/03/03 06:05:20;;;;;;;8.70;4.55;;;0.20;99.90;;;0.22;nan;100866.22;5016138;28;20230;-66
2022/03/03 06:07:53;;;;;;;3.72;2.13;;;0.20;99.90;;;0.23;nan;100865.34;4998281;28;20228;-66
2022/03/03 06:10:25;;;;;;;6.03;2.85;;;0.20;99.90;;;0.23;nan;100870.47;5038107;28;20197;-66
2022/03/03 06:13:25;;;;;;;7.85;4.43;;;0.10;99.90;;;0.15;nan;100877.53;5035438;28;20205;-66
2022/03/03 06:15:53;;;;;;;8.88;4.75;;;0.10;99.90;;;0.17;nan;100892.00;4981183;28;20206;-67
2022/03/03 06:18:28;;;;;;;15.48;7.57;;;0.10;99.90;;;0.15;nan;100893.75;5013168;28;20254;-67
2022/03/03 06:20:55;;;;;;;15.40;8.30;;;0.10;99.90;;;0.24;nan;100915.78;5013754;28;20213;-67
2022/03/03 06:23:23;;;;;;;14.68;7.40;;;0.20;99.90;;;0.37;nan;100910.31;5015115;28;20302;-67
2022/03/03 06:26:07;;;;;;;16.33;8.27;;;0.30;99.90;;;0.55;nan;100916.69;5014462;28;20213;-65
2022/03/03 06:28:34;;;;;;;18.58;10.32;;;0.50;99.90;;;0.75;nan;100917.81;5014977;28;20604;-65
2022/03/03 06:31:04;;;;;;;23.92;13.50;;;0.70;99.90;;;0.97;nan;100928.34;4998199;28;20213;-66
2022/03/03 06:33:31;;;;;;;23.88;11.15;;;1.00;99.90;;;1.08;nan;100928.91;5015142;28;20210;-68
2022/03/03 06:35:58;;;;;;;23.42;11.02;;;1.10;99.90;;;1.15;nan;100917.53;4998922;28;20210;-67
2022/03/03 06:38:26;;;;;;;22.95;10.00;;;1.20;99.90;;;1.26;nan;100919.78;4994815;28;20288;-67
2022/03/03 06:40:55;;;;;;;23.90;13.35;;;1.30;99.90;;;1.27;nan;100932.63;5031093;28;20232;-68
2022/03/03 06:43:22;;;;;;;26.92;12.38;;;1.40;99.90;;;1.45;nan;100934.63;5031749;28;20206;-67
2022/03/03 06:45:48;;;;;;;24.45;12.07;;;1.50;99.90;;;1.74;nan;100935.50;5032518;28;20221;-68
2022/03/03 06:48:16;;;;;;;19.70;9.55;;;1.80;99.90;;;1.87;nan;100931.66;5010092;28;20869;-66
2022/03/03 06:50:44;;;;;;;24.70;12.23;;;2.00;99.90;;;2.03;nan;100935.41;4994801;28;20214;-65
2022/03/03 06:53:11;;;;;;;18.00;9.40;;;2.20;99.90;;;2.25;nan;100949.28;5022770;28;20202;-66
2022/03/03 06:55:43;;;;;;;23.13;12.93;;;2.50;99.90;;;2.56;nan;100941.34;5005342;28;20229;-66
2022/03/03 06:58:12;;;;;;;16.77;8.55;;;2.90;99.90;;;2.98;nan;100935.53;4979069;28;20276;-66
2022/03/03 07:00:40;;;;;;;20.75;10.00;;;3.40;99.90;;;3.97;nan;100930.00;5014381;28;20218;-66
2022/03/03 07:03:07;;;;;;;17.17;9.45;;;4.30;99.90;;;4.83;nan;100930.69;4997699;28;20198;-68
2022/03/03 07:05:35;;;;;;;18.40;9.73;;;5.30;99.90;;;5.46;nan;100935.56;5014692;28;20282;-68
2022/03/03 07:08:02;;;;;;;19.67;11.50;;;6.10;99.70;;;5.23;nan;100940.94;5030395;28;20221;-65
2022/03/03 07:10:29;;;;;;;14.35;8.60;;;5.90;98.80;;;5.34;nan;100949.06;5025545;28;20197;-68
2022/03/03 07:12:57;;;;;;;28.77;9.50;;;5.80;99.00;;;5.59;nan;100947.03;5036182;28;20543;-68
2022/03/03 07:15:26;;;;;;;17.13;9.05;;;6.00;98.90;;;6.58;nan;100937.91;5031942;28;20224;-68
2022/03/03 07:18:06;;;;;;;16.25;9.32;;;7.00;97.20;;;7.61;nan;100939.28;5013883;28;20309;-68
2022/03/03 07:20:57;;;;;;;11.73;7.22;;;8.30;92.90;;;8.57;nan;100939.88;5009753;28;20240;-69
2022/03/03 07:23:39;;;;;;;19.25;10.77;;;9.20;88.60;;;8.94;nan;100934.16;4994785;28;20210;-67
2022/03/03 07:26:10;;;;;;;19.53;11.70;;;9.60;82.70;;;9.23;nan;100941.03;5011900;28;20194;-67
2022/03/03 07:28:49;;;;;;;17.57;10.33;;;9.80;80.40;;;9.88;nan;100928.25;5053110;23;21309;-68
2022/03/03 07:31:19;;;;;;;21.10;11.63;;;10.30;78.40;;;10.40;nan;100926.53;5041983;28;20635;-67
2022/03/03 07:33:55;;;;;;;22.23;13.40;;;11.00;73.50;;;10.53;nan;100924.78;5046195;28;20664;-69
2022/03/03 07:36:29;;;;;;;22.77;12.13;;;11.20;71.50;;;10.90;nan;100921.31;5036426;28;20662;-67
2022/03/03 07:38:58;;;;;;;25.37;14.00;;;11.60;69.30;;;11.75;nan;100935.41;5043794;28;21236;-71
2022/03/03 07:41:27;;;;;;;26.80;14.97;;;12.30;66.60;;;12.67;nan;100923.28;5022991;28;20660;-70
2022/03/03 07:43:57;;;;;;;25.13;14.10;;;13.20;64.10;;;13.49;nan;100931.66;5003800;28;20644;-69
2022/03/03 07:46:26;;;;;;;21.00;12.80;;;14.30;60.30;;;14.29;nan;100930.34;5018490;28;21038;-68
2022/03/03 07:48:56;;;;;;;19.47;13.70;;;15.10;56.90;;;14.47;nan;100928.00;5023057;28;20707;-68
2022/03/03 07:51:25;;;;;;;22.03;13.67;;;15.30;54.60;;;14.37;nan;100930.56;5022215;28;20630;-70
2022/03/03 07:53:52;;;;;;;19.23;12.87;;;15.40;53.40;;;14.23;nan;100929.97;5016771;28;20638;-71
2022/03/03 07:56:28;;;;;;;19.53;13.70;;;15.30;52.80;;;14.15;nan;100930.63;5025540;28;20672;-69
2022/03/03 07:59:02;;;;;;;25.43;13.70;;;15.10;53.40;;;14.18;nan;100937.41;5027695;28;20668;-69
2022/03/03 08:01:31;;;;;;;20.73;12.77;;;15.20;52.70;;;13.38;nan;100934.28;5029683;28;20682;-67
2022/03/03 08:04:01;;;;;;;20.93;12.90;;;15.00;52.40;;;13.41;nan;100941.91;5028957;28;21001;-67
2022/03/03 08:06:30;;;;;;;19.70;11.80;;;14.40;54.10;;;13.58;nan;100943.19;5045512;28;20686;-68
2022/03/03 08:09:00;;;;;;;21.70;13.53;;;14.50;53.40;;;12.75;nan;100942.69;5029816;28;20655;-68
2022/03/03 08:11:29;;;;;;;21.03;14.13;;;14.10;53.80;;;12.36;nan;100954.38;5022150;28;20653;-70
2022/03/03 08:13:57;;;;;;;24.50;12.77;;;13.70;54.10;;;12.63;nan;100943.59;5016532;28;20652;-68
2022/03/03 08:16:26;;;;;;;18.73;11.70;;;13.60;55.50;;;13.35;nan;100942.41;5029329;28;21184;-68
2022/03/03 08:18:57;;;;;;;20.50;13.67;;;14.30;54.40;;;13.99;nan;100940.72;5018317;28;20665;-70
2022/03/03 08:21:25;;;;;;;19.97;11.13;;;15.20;52.90;;;14.85;nan;100951.88;5010408;28;20672;-73
2022/03/03 08:23:56;;;;;;;21.00;14.50;;;15.90;51.90;;;15.30;nan;100945.31;5011542;28;20614;-68
2022/03/03 08:26:25;;;;;;;21.60;13.00;;;16.80;49.60;;;16.21;nan;100950.34;5030766;28;20632;-68
2022/03/03 08:28:52;;;;;;;17.00;11.87;;;17.80;48.20;;;17.85;nan;100939.19;5008252;28;20716;-67
2022/03/03 08:31:28;;;;;;;22.53;14.00;;;19.40;45.60;;;18.59;nan;100931.81;5035009;28;20645;-67
2022/03/03 08:34:12;;;;;;;21.17;12.90;;;20.50;43.50;;;20.34;nan;100938.91;5028715;28;20640;-67
2022/03/03 08:36:54;;;;;;;19.30;13.90;;;22.10;41.10;;;20.97;nan;100946.97;5028982;28;20695;-69
2022/03/03 08:39:28;;;;;;;22.63;15.77;;;23.20;39.80;;;21.40;nan;100938.59;5023947;28;21016;-68
2022/03/03 08:42:00;;;;;;;19.70;14.10;;;24.10;37.60;;;21.87;nan;100938.53;5010513;28;21213;-69
2022/03/03 08:44:52;;;;;;;22.53;15.93;;;24.30;36.80;;;22.39;nan;100942.94;5011772;28;20594;-68
2022/03/03 08:47:22;;;;;;;19.83;13.90;;;25.00;35.80;;;23.25;nan;100930.97;5010292;28;20645;-69
2022/03/03 08:50:00;;;;;;;21.67;15.20;;;25.70;35.20;;;23.69;nan;100937.06;5012976;28;20612;-68
2022/03/03 08:52:47;;;;;;;19.70;15.10;;;26.40;34.60;;;24.24;nan;100945.25;5025700;28;20825;-68
2022/03/03 08:55:15;;;;;;;19.53;14.40;;;27.00;34.00;;;25.52;nan;100946.59;5018060;28;20645;-70
2022/03/03 08:57:42;;;;;;;19.03;15.10;;;28.00;33.40;;;25.21;nan;100948.88;5010187;28;20649;-69
2022/03/03 09:00:11;;;;;;;21.53;15.40;;;28.20;32.60;;;25.77;nan;100944.22;5027250;28;20637;-69
2022/03/03 09:02:43;;;;;;;20.50;15.63;;;28.80;32.20;;;26.00;nan;100948.16;5030378;28;20722;-68
2022/03/03 09:05:11;;;;;;;21.40;15.43;;;29.20;31.90;;;27.00;nan;100945.34;5029419;28;20637;-68
2022/03/03 09:07:38;;;;;;;18.60;15.20;;;29.80;31.60;;;27.08;nan;100949.66;5030785;28;20655;-68
2022/03/03 09:10:07;;;;;;;21.60;15.80;;;30.20;31.00;;;28.33;nan;100953.41;5017138;28;20636;-71
2022/03/03 09:12:35;;;;;;;19.10;16.30;;;31.10;30.90;;;27.68;nan;100952.75;5009231;28;20617;-70
2022/03/03 09:15:04;;;;;;;18.47;14.87;;;31.40;30.10;;;28.04;nan;100954.03;5021396;28;20657;-68
2022/03/03 09:17:33;;;;;;;21.73;16.83;;;31.20;30.20;;;27.70;nan;100955.22;5019579;28;21270;-68
2022/03/03 09:20:02;;;;;;;19.63;15.00;;;31.00;30.00;;;28.15;nan;100947.97;5030007;28;20633;-71
2022/03/03 09:22:30;;;;;;;19.30;15.40;;;31.50;30.00;;;29.21;nan;100946.03;5029752;28;21019;-71
2022/03/03 09:24:56;;;;;;;21.87;17.10;;;32.40;29.80;;;29.27;nan;100947.81;5030592;28;20608;-71
2022/03/03 09:27:24;;;;;;;20.10;16.23;;;32.70;29.50;;;29.69;nan;100938.78;5028193;28;20672;-69
2022/03/03 09:29:52;;;;;;;22.10;16.70;;;33.20;29.30;;;30.14;nan;100931.94;5016375;28;20630;-72
2022/03/03 09:32:19;;;;;;;23.30;16.20;;;33.30;29.10;;;30.46;nan;100930.63;5017368;28;20637;-68
2022/03/03 09:34:46;;;;;;;24.23;16.20;;;33.80;28.90;;;29.15;nan;100926.22;5027084;28;20783;-67
2022/03/03 09:37:14;;;;;;;21.07;16.13;;;33.40;28.80;;;30.08;nan;100921.28;5009803;28;20688;-69
2022/03/03 09:39:43;;;;;;;23.40;15.50;;;33.70;29.00;;;29.32;nan;100915.72;5042631;28;20655;-69
2022/03/03 09:42:10;;;;;;;22.13;16.90;;;33.10;29.00;;;30.65;nan;100918.69;5028780;28;20660;-70
2022/03/03 09:44:37;;;;;;;24.10;16.93;;;34.40;29.00;;;29.70;nan;100913.56;5008527;28;20644;-69
2022/03/03 09:47:05;;;;;;;16.80;15.00;;;33.60;28.70;;;30.79;nan;100905.81;5009855;28;20663;-68
2022/03/03 09:49:32;;;;;;;17.97;14.73;;;34.50;28.60;;;31.82;nan;100914.69;5030945;28;20628;-66
2022/03/03 09:52:00;;;;;;;21.10;15.80;;;35.40;28.50;;;31.24;nan;100903.31;5028781;28;21007;-69
2022/03/03 09:54:27;;;;;;;21.77;16.47;;;35.80;28.10;;;31.49;nan;100906.53;5030827;28;20620;-66
2022/03/03 09:56:54;;;;;;;20.80;17.07;;;35.70;28.00;;;31.37;nan;100903.81;5028918;28;20819;-70
2022/03/03 09:59:21;;;;;;;23.63;15.67;;;35.40;28.10;;;32.51;nan;100912.66;5028581;28;20690;-67
2022/03/03 10:01:49;;;;;;;20.07;14.47;;;36.20;28.00;;;33.19;nan;100904.97;5030227;28;20667;-67
2022/03/03 10:04:25;;;;;;;18.73;15.53;;;37.00;27.80;;;34.02;nan;100901.03;5028768;28;20632;-67
2022/03/03 10:06:52;;;;;;;21.40;16.10;;;37.90;27.60;;;34.41;nan;100894.31;5045819;28;20619;-69
2022/03/03 10:09:19;;;;;;;19.10;16.70;;;38.30;27.50;;;33.83;nan;100886.19;5024384;28;20637;-70
2022/03/03 10:12:05;;;;;;;20.27;15.93;;;38.30;27.30;;;34.83;nan;100891.59;5018276;28;20837;-66
2022/03/03 10:14:35;;;;;;;19.07;15.30;;;38.60;27.30;;;35.36;nan;100888.56;5009823;28;20641;-69
2022/03/03 10:17:05;;;;;;;17.23;14.67;;;39.10;27.10;;;35.99;nan;100895.53;5010321;28;20633;-69
2022/03/03 10:19:57;;;;;;;18.33;16.40;;;39.80;27.00;;;34.87;nan;100884.56;5013325;28;20629;-69
2022/03/03 10:22:59;;;;;;;19.67;17.60;;;39.90;26.50;;;35.06;nan;100883.88;5009267;28;20665;-68
2022/03/03 10:25:42;;;;;;;21.63;17.07;;;39.10;26.60;;;33.30;nan;100873.47;5033819;28;20983;-67
2022/03/03 10:28:24;;;;;;;19.10;16.43;;;38.60;26.60;;;33.80;nan;100876.69;5032666;28;20664;-67
2022/03/03 10:31:13;;;;;;;20.00;16.43;;;37.80;26.80;;;34.50;nan;100878.41;5031358;28;20616;-67
2022/03/03 10:33:49;;;;;;;20.70;17.10;;;38.30;26.70;;;35.45;nan;100891.59;5032506;28;20635;-66
2022/03/03 10:36:24;;;;;;;16.70;15.00;;;39.00;26.70;;;34.95;nan;100881.34;5033761;28;20624;-67